TimeMDT,TemperatureF,Dew PointF,Humidity,Sea Level PressureIn,VisibilityMPH,Wind Direction,Wind SpeedMPH,Gust SpeedMPH,PrecipitationIn,Events,Conditions,WindDirDegrees,DateUTC
12:51 AM,52.0,34.0,50,30.20,10.0,North,5.8,-,N/A,,Clear,350,2013-05-11 06:51:00
1:51 AM,48.0,35.1,61,30.22,10.0,Calm,Calm,-,N/A,,Clear,0,2013-05-11 07:51:00
2:51 AM,45.0,35.1,68,30.22,10.0,Calm,Calm,-,N/A,,Clear,0,2013-05-11 08:51:00
3:51 AM,44.1,34.0,68,30.22,10.0,Calm,Calm,-,N/A,,Clear,0,2013-05-11 09:51:00
4:51 AM,42.1,34.0,73,30.23,10.0,Calm,Calm,-,N/A,,Partly Cloudy,0,2013-05-11 10:51:00
5:51 AM,41.0,34.0,76,30.22,10.0,Calm,Calm,-,N/A,,Partly Cloudy,0,2013-05-11 11:51:00
6:51 AM,42.1,34.0,73,30.22,10.0,Calm,Calm,-,N/A,,Clear,0,2013-05-11 12:51:00
7:51 AM,45.0,37.0,74,30.22,10.0,Calm,Calm,-,N/A,,Mostly Cloudy,0,2013-05-11 13:51:00
8:51 AM,50.0,37.0,61,30.22,10.0,Calm,Calm,-,N/A,,Mostly Cloudy,0,2013-05-11 14:51:00
9:51 AM,53.1,37.0,55,30.23,10.0,Calm,Calm,-,N/A,,Mostly Cloudy,0,2013-05-11 15:51:00
10:51 AM,55.9,39.0,53,30.23,10.0,SW,3.5,-,N/A,,Mostly Cloudy,230,2013-05-11 16:51:00
11:51 AM,64.0,39.0,40,30.22,10.0,South,5.8,-,N/A,,Partly Cloudy,170,2013-05-11 17:51:00
12:51 PM,69.1,37.9,32,30.19,10.0,South,6.9,-,N/A,,Clear,170,2013-05-11 18:51:00
1:51 PM,71.1,37.0,29,30.19,10.0,SE,4.6,-,N/A,,Mostly Cloudy,130,2013-05-11 19:51:00
2:51 PM,75.0,33.1,22,30.17,10.0,Variable,6.9,-,N/A,,Scattered Clouds,0,2013-05-11 20:51:00
3:51 PM,75.0,33.1,22,30.15,10.0,West,8.1,-,N/A,,Scattered Clouds,280,2013-05-11 21:51:00
4:51 PM,75.9,32.0,20,30.14,10.0,Variable,3.5,-,N/A,,Partly Cloudy,0,2013-05-11 22:51:00
5:51 PM,77.0,33.1,20,30.13,10.0,SW,11.5,-,N/A,,Mostly Cloudy,230,2013-05-11 23:51:00
6:51 PM,75.0,33.1,22,30.13,10.0,WSW,9.2,-,N/A,,Partly Cloudy,240,2013-05-12 00:51:00
7:51 PM,72.0,34.0,25,30.12,10.0,South,4.6,-,N/A,,Partly Cloudy,190,2013-05-12 01:51:00
8:51 PM,66.0,39.9,38,30.12,10.0,Calm,Calm,-,N/A,,Clear,0,2013-05-12 02:51:00
9:51 PM,62.1,39.0,43,30.13,10.0,North,5.8,-,N/A,,Clear,10,2013-05-12 03:51:00
10:51 PM,60.1,36.0,41,30.14,10.0,NNE,5.8,-,N/A,,Clear,20,2013-05-12 04:51:00
11:51 PM,55.9,37.0,49,30.13,10.0,Calm,Calm,-,N/A,,Clear,0,2013-05-12 05:51:00